Latest Weather Observations for Grafton Airport

IDN60801

Issued at 1:03 pm EDT Monday 8 February 2016 (issued every 30 minutes, with the page automatically refreshed every 10 minutes)

About weather observations | Map of weather stations | Latest weather observations for NSW | Other Formats
Station Details ID: 058161 Name: GRAFTON AIRPORT AWS Lat: -29.76 Lon: 153.03 Height: 25.09 m
Data from the previous 72 hours. | See also: Recent months at Grafton Airport
Date/Time
EDT
Temp
°C
App
Temp
°C
Dew
Point
Rel
Hum
%
Delta-T
°C
Wind Press
QNH
hPa
Press
MSL
hPa
Rain
since 9 am
mm
Dir
 
Spd
km/h
Gust
km/h
Spd
kts
Gust
kts
08/01:00pm 28.6 27.1 16.2 47 7.7 S 19 32 10 17 1015.8 1015.7 0.0
08/12:30pm 28.0 27.2 17.2 52 6.8 SSW 17 30 9 16 1016.0 1015.9 0.0
08/12:00pm 28.0 27.5 16.9 51 6.9 S 15 24 8 13 1016.5 1016.4 0.0
08/11:30am 26.9 26.0 16.8 54 6.3 SSW 17 22 9 12 1016.7 1016.6 0.0
08/11:00am 27.1 26.1 17.6 56 6.0 S 19 26 10 14 1016.8 1016.7 0.0
08/10:30am 26.0 24.7 16.8 57 5.7 S 19 24 10 13 1016.8 1016.7 0.0
08/10:00am 25.7 24.9 17.1 59 5.3 S 17 26 9 14 1016.7 1016.6 0.0
08/09:30am 24.1 24.2 16.4 62 4.7 SSW 11 20 6 11 1016.7 1016.6 0.0
08/09:00am 22.3 22.6 16.1 68 3.7 SSW 9 13 5 7 1016.7 1016.6 0.0
08/08:30am 20.4 21.0 15.8 75 2.7 SSW 7 11 4 6 1016.7 1016.6 0.0
08/08:00am 19.1 19.5 15.2 78 2.3 SSW 7 9 4 5 1016.6 1016.5 0.0
08/07:30am 17.8 18.5 15.6 87 1.3 SSW 6 9 3 5 1016.5 1016.4 0.0
08/07:00am 15.6 16.5 14.1 91 0.8 SSW 2 7 1 4 1016.2 1016.1 0.0
08/06:30am 15.9 16.0 14.4 91 0.9 S 7 11 4 6 1015.8 1015.7 0.0
08/06:00am 15.7 16.0 14.6 93 0.6 SSW 6 7 3 4 1015.6 1015.5 0.0
08/05:30am 15.9 16.1 14.8 93 0.6 SSW 7 9 4 5 1015.5 1015.4 0.0
08/05:00am 15.9 16.1 14.8 93 0.6 SSW 7 11 4 6 1015.5 1015.4 0.0
08/04:30am 15.8 15.8 14.3 91 0.9 SSW 7 9 4 5 1015.6 1015.5 0.0
08/04:00am 16.5 17.1 15.2 92 0.8 SSW 6 7 3 4 1015.7 1015.6 0.0
08/03:30am 16.6 17.0 15.3 92 0.8 SSW 7 9 4 5 1015.7 1015.6 0.0
08/03:00am 16.5 17.0 15.5 94 0.6 SSW 7 9 4 5 1015.8 1015.7 0.0
08/02:30am 16.6 17.3 15.5 93 0.6 SSW 6 6 3 3 1016.2 1016.1 0.0
08/02:00am 17.3 18.8 15.8 91 0.9 SSW 2 6 1 3 1016.3 1016.2 0.0
08/01:30am 17.9 19.9 16.1 89 1.1 CALM 0 0 0 0 1016.5 1016.4 0.0
08/01:00am 18.0 19.8 15.6 86 1.4 CALM 0 0 0 0 1016.8 1016.7 0.0
08/12:30am 18.5 20.5 15.9 85 1.5 CALM 0 0 0 0 1016.9 1016.8 0.0
08/12:02am 18.7 20.2 15.8 83 1.7 SSW 2 7 1 4 1016.8 1016.7 0.0
08/12:00am 18.7 20.2 15.8 83 1.7 SSW 2 6 1 3 1016.8 1016.7 0.0
 
Date/Time
EDT
Temp
°C
App
Temp
°C
Dew
Point
Rel
Hum
%
Delta-T
°C
Wind Press
QNH
hPa
Press
MSL
hPa
Rain
since 9 am
mm
Dir
 
Spd
km/h
Gust
km/h
Spd
kts
Gust
kts
07/11:36pm 19.7 20.7 16.3 81 2.0 SSW 6 9 3 5 1016.9 1016.8 0.0
07/11:30pm 19.9 21.7 16.5 81 2.0 SSW 2 7 1 4 1017.0 1016.9 0.0
07/11:00pm 19.5 20.7 16.0 80 2.1 SSW 4 6 2 3 1016.9 1016.8 0.0
07/10:30pm 19.6 20.4 16.3 81 2.0 SSW 7 9 4 5 1017.0 1016.9 0.0
07/10:00pm 19.8 21.4 15.9 78 2.3 SSW 2 7 1 4 1016.9 1016.8 0.0
07/09:30pm 21.1 21.9 15.9 72 3.1 SSW 6 7 3 4 1016.7 1016.6 0.0
07/09:00pm 21.3 22.0 16.0 72 3.2 S 7 11 4 6 1016.3 1016.2 0.0
07/08:30pm 21.8 22.1 16.1 70 3.4 S 9 13 5 7 1016.1 1016.0 0.0
07/08:00pm 22.5 23.2 16.1 67 3.9 SSE 7 11 4 6 1015.7 1015.6 0.0
07/07:30pm 23.6 22.7 15.9 62 4.7 SSE 15 20 8 11 1015.3 1015.2 0.0
07/07:00pm 24.2 23.0 16.2 61 4.9 SSE 17 26 9 14 1014.8 1014.7 0.0
07/06:30pm 24.7 23.2 16.4 60 5.1 SE 19 32 10 17 1014.4 1014.3 0.0
07/06:00pm 24.6 22.6 15.5 57 5.5 SSE 20 32 11 17 1014.3 1014.2 0.0
07/05:30pm 26.4 25.4 16.6 55 6.1 SE 17 33 9 18 1014.1 1014.0 0.0
07/05:00pm 25.9 23.9 15.6 53 6.3 SE 20 35 11 19 1013.9 1013.8 0.0
07/04:30pm 25.7 23.3 16.3 56 5.8 SE 24 35 13 19 1013.9 1013.8 0.0
07/04:00pm 27.3 26.0 16.9 53 6.5 ESE 19 32 10 17 1013.9 1013.8 0.0
07/03:30pm 27.4 26.1 16.7 52 6.7 SE 19 30 10 16 1014.1 1014.0 0.0
07/03:00pm 26.9 24.9 16.5 53 6.4 SE 22 32 12 17 1014.1 1014.0 0.0
07/02:30pm 28.1 25.8 14.7 44 8.1 S 20 32 11 17 1014.2 1014.1 0.0
07/02:00pm 27.4 24.9 15.1 47 7.5 SSE 22 39 12 21 1014.3 1014.2 0.0
07/01:30pm 26.4 24.3 15.1 49 6.8 SSE 20 35 11 19 1014.3 1014.2 0.0
07/01:00pm 27.2 25.4 15.9 50 6.9 SSE 20 32 11 17 1014.6 1014.5 0.0
07/12:30pm 27.5 25.4 14.8 45 7.7 S 19 28 10 15 1014.8 1014.7 0.0
07/12:00pm 26.1 25.2 15.8 53 6.3 SSW 15 22 8 12 1015.3 1015.2 0.0
07/11:30am 25.6 25.0 16.7 58 5.5 S 15 30 8 16 1015.8 1015.7 0.0
07/11:00am 25.7 24.7 16.5 56 5.7 SSW 17 28 9 15 1015.9 1015.8 0.0
07/10:30am 25.1 23.6 16.8 60 5.1 S 20 33 11 18 1015.7 1015.6 0.0
07/10:00am 23.9 23.0 16.9 65 4.3 S 17 26 9 14 1015.5 1015.4 0.0
07/09:30am 22.2 21.7 16.0 68 3.7 SSW 13 20 7 11 1015.7 1015.6 0.0
07/09:00am 21.2 21.7 16.6 75 2.8 SW 9 13 5 7 1015.9 1015.8 0.0
07/08:30am 20.4 21.4 16.4 78 2.4 SW 6 9 3 5 1015.7 1015.6 0.0
07/08:00am 19.8 20.6 16.4 81 2.0 SSW 7 9 4 5 1015.4 1015.3 0.0
07/07:30am 19.2 20.0 16.4 84 1.7 SW 7 11 4 6 1015.5 1015.4 0.0
07/07:00am 18.7 19.5 16.3 86 1.4 WSW 7 9 4 5 1014.9 1014.8 0.0
07/06:30am 18.8 19.7 16.0 84 1.7 SW 6 9 3 5 1014.2 1014.1 0.0
07/06:00am 19.5 20.1 15.8 79 2.2 SSW 7 13 4 7 1014.1 1014.0 0.0
07/05:30am 19.6 19.5 16.1 80 2.1 SSW 11 15 6 8 1013.8 1013.7 0.0
07/05:00am 19.2 20.3 16.6 85 1.6 SW 6 9 3 5 1013.9 1013.8 0.0
07/04:30am 19.2 20.2 16.4 84 1.7 SW 6 13 3 7 1014.1 1014.0 0.0
07/04:00am 19.6 20.6 16.4 82 1.9 SW 6 9 3 5 1013.7 1013.6 0.0
07/03:30am 19.8 20.3 16.6 82 1.9 SSW 9 13 5 7 1013.5 1013.4 0.0
07/03:00am 19.8 19.7 17.0 84 1.7 S 13 17 7 9 1013.7 1013.6 0.0
07/02:30am 19.9 20.2 16.9 83 1.8 S 11 15 6 8 1013.8 1013.7 0.0
07/02:00am 20.5 20.0 16.9 80 2.2 SSW 15 22 8 12 1014.3 1014.2 0.0
07/01:30am 20.3 20.5 17.7 85 1.6 S 13 17 7 9 1014.7 1014.6 0.0
07/01:00am 20.1 21.1 17.7 86 1.5 S 9 13 5 7 1014.9 1014.8 0.0
07/12:30am 20.1 21.2 18.1 88 1.2 SSW 9 15 5 8 1015.2 1015.1 0.0
07/12:00am 19.9 21.6 18.4 91 0.9 S 7 9 4 5 1015.1 1015.0 0.0
 
Date/Time
EDT
Temp
°C
App
Temp
°C
Dew
Point
Rel
Hum
%
Delta-T
°C
Wind Press
QNH
hPa
Press
MSL
hPa
Rain
since 9 am
mm
Dir
 
Spd
km/h
Gust
km/h
Spd
kts
Gust
kts
06/11:30pm 19.8 21.5 18.5 92 0.8 SW 7 11 4 6 1015.3 1015.2 0.0
06/11:00pm 20.0 21.8 18.7 92 0.8 SW 7 11 4 6 1015.5 1015.4 0.0
06/10:30pm 20.1 21.6 18.8 92 0.8 S 9 13 5 7 1015.3 1015.2 0.0
06/10:00pm 20.3 21.5 19.0 92 0.8 S 11 15 6 8 1015.2 1015.1 0.0
06/09:49pm 20.4 21.1 18.9 91 0.9 S 13 17 7 9 1015.0 1014.9 0.0
06/09:30pm 20.4 22.1 19.4 94 0.6 S 9 15 5 8 1014.9 1014.8 0.0
06/09:19pm 20.6 22.8 19.6 94 0.6 S 7 9 4 5 1014.8 1014.7 0.0
06/09:00pm 20.6 22.4 19.6 94 0.6 SSE 9 13 5 7 1014.5 1014.4 0.0
06/08:55pm 20.7 22.2 19.7 94 0.6 SSE 11 19 6 10 1014.3 1014.2 0.0
06/08:30pm 20.8 21.2 19.8 94 0.6 SSE 17 24 9 13 1014.2 1014.1 0.0
06/08:15pm 21.2 23.2 20.0 93 0.8 SSW 9 15 5 8 1014.1 1014.0 0.0
06/08:00pm 21.3 23.6 19.9 92 0.9 SSW 7 9 4 5 1014.0 1013.9 0.0
06/07:49pm 21.4 23.4 20.0 92 0.9 S 9 13 5 7 1014.0 1013.9 0.0
06/07:30pm 21.6 23.6 19.9 90 1.1 S 9 15 5 8 1013.9 1013.8 0.0
06/07:00pm 21.6 22.8 19.9 90 1.1 SSE 13 19 7 10 1013.3 1013.2 0.0
06/06:40pm 21.5 22.8 20.1 92 0.9 S 13 20 7 11 1013.3 1013.2 0.0
06/06:30pm 21.4 22.6 19.9 91 1.0 SSE 13 20 7 11 1013.0 1012.9 0.0
06/06:19pm 21.4 22.5 19.7 90 1.1 SSE 13 19 7 10 1013.0 1012.9 0.0
06/06:18pm 21.3 22.0 19.6 90 1.1 SSE 15 20 8 11 1013.0 1012.9 0.0
06/06:03pm 21.7 22.5 19.8 89 1.2 SE 15 22 8 12 1012.8 1012.7 0.0
06/06:00pm 21.8 22.6 19.9 89 1.2 SE 15 22 8 12 1012.7 1012.6 0.0
06/05:55pm 21.8 22.5 19.7 88 1.3 SE 15 26 8 14 1012.7 1012.6 0.0
06/05:36pm 21.8 22.2 19.9 89 1.2 SE 17 28 9 15 1012.7 1012.6 0.0
06/05:32pm 22.1 23.3 20.0 88 1.3 SE 13 24 7 13 1012.6 1012.5 0.0
06/05:30pm 22.2 23.0 19.9 87 1.5 SE 15 24 8 13 1012.6 1012.5 0.0
06/05:12pm 22.3 22.1 19.7 85 1.7 SSE 20 30 11 16 1012.5 1012.4 0.0
06/05:09pm 22.6 22.3 19.6 83 1.9 SSE 20 30 11 16 1012.4 1012.3 0.0
06/05:00pm 22.8 22.6 19.4 81 2.2 SSE 19 28 10 15 1012.5 1012.4 0.0
06/04:52pm 22.8 23.4 19.4 81 2.2 SSE 15 28 8 15 1012.6 1012.5 0.0
06/04:30pm 24.1 23.9 19.4 75 3.0 S 19 28 10 15 1012.4 1012.3 0.0
06/04:00pm 23.4 23.6 20.2 82 2.1 SSW 19 32 10 17 1012.3 1012.2 0.0
06/03:30pm 24.2 23.5 19.5 75 3.0 S 22 32 12 17 1012.2 1012.1 0.0
06/03:00pm 24.3 23.4 19.8 76 2.9 S 24 32 13 17 1012.6 1012.5 0.0
06/02:43pm 23.5 21.0 18.8 75 3.0 S 30 48 16 26 1012.7 1012.6 0.0
06/02:30pm 25.1 23.6 19.5 71 3.6 SSE 26 41 14 22 1012.6 1012.5 0.0
06/02:00pm 23.5 22.8 19.6 79 2.5 SSE 22 33 12 18 1012.9 1012.8 0.0
06/01:30pm 24.1 24.4 20.4 80 2.4 S 19 26 10 14 1013.1 1013.0 0.0
06/01:28pm 24.1 24.3 20.2 79 2.5 S 19 26 10 14 1013.2 1013.1 0.0
06/01:10pm 22.8 22.8 19.8 83 1.9 SSE 19 32 10 17 1013.5 1013.4 0.0
06/01:08pm 23.4 23.9 20.0 81 2.2 SSE 17 28 9 15 1013.6 1013.5 0.0
06/01:00pm 23.5 23.4 19.6 79 2.5 SSE 19 26 10 14 1013.6 1013.5 0.0
06/12:55pm 23.4 23.2 19.3 78 2.6 SSE 19 26 10 14 1013.7 1013.6 0.0
06/12:30pm 24.0 24.0 18.9 73 3.2 SSE 17 28 9 15 1013.8 1013.7 0.0
06/12:00pm 24.8 22.1 18.5 68 4.0 SSE 30 48 16 26 1013.8 1013.7 0.0
06/11:56am 24.7 22.4 18.4 68 4.0 SSE 28 48 15 26 1013.8 1013.7 0.0
06/11:30am 24.9 23.6 18.1 66 4.3 S 22 39 12 21 1013.6 1013.5 0.0
06/11:00am 24.1 24.7 18.5 71 3.5 S 13 20 7 11 1014.0 1013.9 0.0
06/10:30am 23.7 24.1 19.0 75 3.0 SSE 15 24 8 13 1014.0 1013.9 0.0
06/10:00am 23.4 23.1 18.3 73 3.2 SSW 17 24 9 13 1013.9 1013.8 0.0
06/09:30am 23.1 23.6 18.4 75 3.0 S 13 20 7 11 1013.9 1013.8 0.0
06/09:00am 23.4 24.1 18.9 76 2.9 SSW 13 19 7 10 1013.8 1013.7 0.0
06/08:30am 22.6 23.0 19.0 80 2.3 S 15 17 8 9 1013.4 1013.3 0.0
06/08:00am 21.9 22.5 18.7 82 2.0 S 13 19 7 10 1013.4 1013.3 0.0
06/07:30am 21.2 22.0 18.2 83 1.9 SSW 11 15 6 8 1012.9 1012.8 0.0
06/07:00am 20.2 21.0 18.1 88 1.3 SSW 11 15 6 8 1012.6 1012.5 0.0
06/06:30am 19.7 20.8 18.0 90 1.0 SSW 9 13 5 7 1012.2 1012.1 0.0
06/06:00am 19.8 21.2 17.9 89 1.2 SSW 7 11 4 6 1012.0 1011.9 0.0
06/05:30am 19.9 21.0 18.0 89 1.2 SSW 9 15 5 8 1011.5 1011.4 0.0
06/05:00am 20.0 20.9 18.3 90 1.1 SSW 11 15 6 8 1011.5 1011.4 0.0
06/04:30am 20.0 21.0 18.7 92 0.8 SSW 11 17 6 9 1011.3 1011.2 0.0
06/04:00am 19.9 20.5 18.6 92 0.8 SSW 13 17 7 9 1011.6 1011.5 0.0
06/03:30am 20.3 21.1 19.0 92 0.8 SSW 13 15 7 8 1011.7 1011.6 0.0
06/03:00am 20.2 21.6 18.7 91 0.9 SSW 9 11 5 6 1012.1 1012.0 0.0
06/02:30am 20.3 21.0 18.8 91 0.9 S 13 19 7 10 1012.2 1012.1 0.0
06/02:00am 20.4 20.3 18.7 90 1.1 S 17 22 9 12 1012.3 1012.2 0.0
06/01:57am 20.4 20.3 18.7 90 1.1 S 17 22 9 12 1012.2 1012.1 0.0
06/01:43am 20.6 21.2 18.5 88 1.3 S 13 20 7 11 1012.6 1012.5 0.0
06/01:30am 20.5 22.1 18.3 87 1.4 S 7 11 4 6 1012.7 1012.6 0.0
06/01:00am 20.8 22.0 18.2 85 1.6 SSW 9 15 5 8 1012.8 1012.7 0.0
06/12:30am 21.2 22.3 18.0 82 2.0 SSW 9 15 5 8 1013.1 1013.0 0.0
06/12:00am 21.6 21.5 17.8 79 2.4 SSW 15 24 8 13 1013.5 1013.4 0.0
 
Date/Time
EDT
Temp
°C
App
Temp
°C
Dew
Point
Rel
Hum
%
Delta-T
°C
Wind Press
QNH
hPa
Press
MSL
hPa
Rain
since 9 am
mm
Dir
 
Spd
km/h
Gust
km/h
Spd
kts
Gust
kts
05/11:30pm 21.7 22.8 18.1 80 2.2 SSW 9 15 5 8 1013.8 1013.7 0.0
05/11:00pm 21.6 22.7 18.0 80 2.2 SSW 9 15 5 8 1013.7 1013.6 0.0
05/10:30pm 21.6 22.9 17.6 78 2.5 WSW 7 11 4 6 1013.7 1013.6 0.0
05/10:00pm 22.8 22.3 17.9 74 3.1 S 17 24 9 13 1013.8 1013.7 0.0
05/09:30pm 23.2 22.2 17.9 72 3.3 SSE 20 30 11 16 1013.5 1013.4 0.0
05/09:00pm 22.9 22.3 17.6 72 3.3 S 17 26 9 14 1013.0 1012.9 0.0
05/08:30pm 22.9 22.7 17.6 72 3.3 S 15 22 8 12 1012.6 1012.5 0.0
05/08:00pm 23.1 22.5 17.6 71 3.4 S 17 28 9 15 1012.4 1012.3 0.0
05/07:30pm 24.0 22.3 17.3 66 4.2 SSE 22 33 12 18 1011.9 1011.8 0.0
05/07:00pm 24.5 22.5 17.5 65 4.4 SSE 24 35 13 19 1011.6 1011.5 0.0
05/06:30pm 24.5 22.2 17.7 66 4.3 SSE 26 35 14 19 1011.3 1011.2 0.0
05/06:00pm 25.2 23.7 18.6 67 4.2 S 24 33 13 18 1011.1 1011.0 0.0
05/05:30pm 23.6 21.4 18.7 74 3.1 S 28 41 15 22 1011.2 1011.1 0.0
05/05:00pm 25.2 23.5 18.2 65 4.4 S 24 41 13 22 1010.8 1010.7 0.0
05/04:30pm 26.1 26.9 21.3 75 3.2 SSE 19 28 10 15 1010.7 1010.6 0.0
05/04:00pm 27.3 25.3 17.5 55 6.2 SSE 24 35 13 19 1010.8 1010.7 0.0
05/03:30pm 27.1 24.9 17.0 54 6.3 SSE 24 33 13 18 1010.9 1010.8 0.0
05/03:00pm 27.7 26.6 17.3 53 6.5 SSE 19 28 10 15 1010.8 1010.7 0.0
05/02:30pm 27.2 25.2 17.4 55 6.2 S 24 46 13 25 1010.9 1010.8 0.0
05/02:00pm 28.4 26.0 18.2 54 6.5 S 28 43 15 23 1011.0 1010.9 0.0
05/01:30pm 27.6 24.6 17.7 54 6.3 S 30 46 16 25 1011.1 1011.0 0.0
05/01:26pm 27.9 25.5 18.3 56 6.1 S 28 46 15 25 1011.2 1011.1 0.0

Other Formats:

Comma delimited format used in spreadsheet applications
http://www.bom.gov.au/fwo/IDN60801/IDN60801.95570.axf

JavaScript Object Notation format (JSON) in row-major order
http://www.bom.gov.au/fwo/IDN60801/IDN60801.95570.json